createdAt,value
2023-03-01T00:01:04.372Z,1.50
2023-03-01T00:03:54.093Z,1.40
2023-03-01T00:06:47.126Z,1.50
2023-03-01T00:09:39.282Z,1.60
2023-03-01T00:12:28.827Z,1.40
2023-03-01T00:15:19.896Z,1.40
2023-03-01T00:18:09.215Z,1.40
2023-03-01T00:20:58.149Z,1.40
2023-03-01T00:23:46.791Z,1.40
2023-03-01T00:26:36.897Z,1.30
2023-03-01T00:29:25.998Z,1.40
2023-03-01T00:32:14.695Z,1.50
2023-03-01T00:35:03.623Z,1.50
2023-03-01T00:37:58.683Z,1.50
2023-03-01T00:40:47.322Z,1.50
2023-03-01T00:43:38.763Z,1.40
2023-03-01T00:46:30.431Z,1.50
2023-03-01T00:49:25.260Z,1.40
2023-03-01T00:52:14.063Z,1.50
2023-03-01T00:55:02.891Z,1.50
2023-03-01T00:57:51.838Z,1.30
2023-03-01T01:00:41.878Z,1.30
2023-03-01T01:03:30.762Z,1.20
2023-03-01T01:06:22.468Z,1.20
2023-03-01T01:09:18.456Z,1.20
2023-03-01T01:12:07.970Z,1.30
2023-03-01T01:14:56.721Z,1.30
2023-03-01T01:17:46.701Z,1.20
2023-03-01T01:20:36.943Z,1.20
2023-03-01T01:23:25.874Z,1.10
2023-03-01T01:26:16.988Z,1.10
2023-03-01T01:29:07.380Z,1.20
2023-03-01T01:31:56.157Z,1.10
2023-03-01T01:34:47.621Z,1.00
2023-03-01T01:37:36.322Z,1.20
2023-03-01T01:40:25.061Z,1.00
2023-03-01T01:43:21.728Z,1.10
2023-03-01T01:46:29.959Z,1.00
2023-03-01T01:49:27.102Z,1.00
2023-03-01T01:52:26.492Z,1.00
2023-03-01T01:55:19.982Z,1.00
2023-03-01T01:58:13.164Z,1.00
2023-03-01T02:01:02.751Z,1.00
2023-03-01T02:03:51.738Z,1.00
2023-03-01T02:06:44.932Z,1.00
2023-03-01T02:09:36.554Z,1.10
2023-03-01T02:12:27.780Z,1.10
2023-03-01T02:15:17.891Z,1.10
2023-03-01T02:18:07.662Z,1.10
2023-03-01T02:21:10.833Z,1.10
2023-03-01T02:24:01.335Z,1.00
2023-03-01T02:26:55.816Z,1.10
2023-03-01T02:29:45.891Z,1.00
2023-03-01T02:32:35.249Z,0.90
2023-03-01T02:35:24.201Z,1.00
2023-03-01T02:38:12.924Z,0.90
2023-03-01T02:41:04.184Z,0.90
2023-03-01T02:43:52.958Z,1.00
2023-03-01T02:46:47.918Z,1.10
2023-03-01T02:49:38.967Z,1.00
2023-03-01T02:52:43.241Z,0.90
2023-03-01T02:55:32.176Z,0.80
2023-03-01T02:58:22.003Z,0.90
2023-03-01T03:01:11.048Z,0.90
2023-03-01T03:04:02.819Z,0.90
2023-03-01T03:06:53.744Z,1.00
2023-03-01T03:09:42.674Z,0.80
2023-03-01T03:12:36.163Z,1.00
2023-03-01T03:15:25.797Z,0.80
2023-03-01T03:18:17.101Z,0.80
2023-03-01T03:21:11.593Z,0.90
2023-03-01T03:24:00.397Z,0.90
2023-03-01T03:26:49.404Z,0.90
2023-03-01T03:29:38.416Z,0.90
2023-03-01T03:32:27.090Z,0.80
2023-03-01T03:35:15.833Z,0.80
2023-03-01T03:38:10.355Z,0.90
2023-03-01T03:41:04.463Z,0.80
2023-03-01T03:43:53.220Z,1.00
2023-03-01T03:46:41.940Z,1.00
2023-03-01T03:49:31.036Z,1.00
2023-03-01T03:52:19.711Z,0.90
2023-03-01T03:55:11.766Z,0.70
2023-03-01T03:58:03.434Z,0.90
2023-03-01T04:00:54.119Z,0.80
2023-03-01T04:03:47.615Z,0.70
2023-03-01T04:06:36.318Z,0.80
2023-03-01T04:09:24.968Z,0.80
2023-03-01T04:12:15.291Z,0.90
2023-03-01T04:15:14.132Z,0.80
2023-03-01T04:18:03.950Z,0.80
2023-03-01T04:20:56.468Z,0.70
2023-03-01T04:23:45.608Z,0.60
2023-03-01T04:26:34.853Z,0.70
2023-03-01T04:29:24.968Z,0.80
2023-03-01T04:32:17.420Z,0.80
2023-03-01T04:35:06.620Z,0.80
2023-03-01T04:37:55.339Z,0.80
2023-03-01T04:40:44.208Z,0.90
2023-03-01T04:43:32.972Z,0.80
2023-03-01T04:46:29.433Z,0.80
2023-03-01T04:49:18.700Z,0.80
2023-03-01T04:52:07.676Z,0.70
2023-03-01T04:54:56.794Z,0.60
2023-03-01T04:57:45.742Z,0.60
2023-03-01T05:00:34.883Z,0.60
2023-03-01T05:03:25.014Z,0.70
2023-03-01T05:06:14.174Z,0.80
2023-03-01T05:09:03.231Z,0.80
2023-03-01T05:11:52.769Z,0.80
2023-03-01T05:14:41.496Z,0.80
2023-03-01T05:17:30.120Z,0.80
2023-03-01T05:20:23.929Z,0.70
2023-03-01T05:23:12.906Z,0.70
2023-03-01T05:26:01.787Z,0.70
2023-03-01T05:28:51.038Z,0.70
2023-03-01T05:31:42.083Z,0.80
2023-03-01T05:34:32.568Z,0.80
2023-03-01T05:37:22.678Z,0.70
2023-03-01T05:40:16.650Z,0.70
2023-03-01T05:43:06.229Z,0.80
2023-03-01T05:45:54.941Z,0.80
2023-03-01T05:48:43.832Z,0.80
2023-03-01T05:51:34.882Z,0.90
2023-03-01T05:54:24.947Z,0.90
2023-03-01T05:57:13.678Z,0.90
2023-03-01T06:00:02.421Z,0.90
2023-03-01T06:03:02.071Z,1.00
2023-03-01T06:05:50.759Z,0.90
2023-03-01T06:08:39.597Z,1.00
2023-03-01T06:11:29.729Z,1.10
2023-03-01T06:14:18.700Z,1.10
2023-03-01T06:17:07.303Z,1.20
2023-03-01T06:19:55.998Z,1.10
2023-03-01T06:22:45.437Z,1.20
2023-03-01T06:25:34.704Z,1.20
2023-03-01T06:28:25.064Z,1.20
2023-03-01T06:31:13.878Z,1.40
2023-03-01T06:34:03.400Z,1.40
2023-03-01T06:36:52.032Z,1.40
2023-03-01T06:39:41.404Z,1.50
2023-03-01T06:42:30.035Z,1.50
2023-03-01T06:45:21.977Z,1.60
2023-03-01T06:48:10.753Z,1.60
2023-03-01T06:51:02.014Z,1.60
2023-03-01T06:53:50.728Z,1.50
2023-03-01T06:56:39.477Z,1.60
2023-03-01T06:59:28.091Z,1.70
2023-03-01T07:02:18.326Z,1.70
2023-03-01T07:05:07.828Z,1.80
2023-03-01T07:07:57.311Z,1.90
2023-03-01T07:10:46.037Z,1.90
2023-03-01T07:13:35.065Z,1.90
2023-03-01T07:16:23.901Z,1.90
2023-03-01T07:19:14.225Z,2.00
2023-03-01T07:22:02.999Z,1.90
2023-03-01T07:24:51.685Z,1.90
2023-03-01T07:27:41.555Z,2.10
2023-03-01T07:30:30.321Z,2.20
2023-03-01T07:33:19.409Z,2.30
2023-03-01T07:36:11.263Z,2.40
2023-03-01T07:39:00.230Z,2.30
2023-03-01T07:41:48.925Z,2.40
2023-03-01T07:44:39.295Z,2.40
2023-03-01T07:47:28.146Z,2.50
2023-03-01T07:50:17.131Z,2.50
2023-03-01T07:53:07.264Z,2.60
2023-03-01T07:56:03.434Z,2.60
2023-03-01T07:58:52.270Z,2.70
2023-03-01T08:01:41.049Z,2.90
2023-03-01T08:04:29.886Z,3.00
2023-03-01T08:07:18.662Z,3.10
2023-03-01T08:10:10.010Z,3.30
2023-03-01T08:12:58.699Z,3.60
2023-03-01T08:15:47.481Z,4.00
2023-03-01T08:18:39.785Z,4.50
2023-03-01T08:21:28.797Z,4.60
2023-03-01T08:24:17.785Z,4.40
2023-03-01T08:27:08.102Z,4.30
2023-03-01T08:29:56.699Z,4.20
2023-03-01T08:32:45.612Z,4.50
2023-03-01T08:35:36.532Z,4.50
2023-03-01T08:38:25.391Z,4.60
2023-03-01T08:41:14.184Z,4.70
2023-03-01T08:44:04.816Z,5.20
2023-03-01T08:46:54.306Z,5.40
2023-03-01T08:49:43.090Z,5.50
2023-03-01T08:52:32.129Z,5.70
2023-03-01T08:55:20.780Z,5.80
2023-03-01T08:58:09.664Z,6.30
2023-03-01T09:00:59.875Z,6.60
2023-03-01T09:03:49.350Z,7.00
2023-03-01T09:06:38.455Z,7.10
2023-03-01T09:09:27.199Z,7.30
2023-03-01T09:12:15.957Z,7.10
2023-03-01T09:15:29.722Z,6.80
2023-03-01T09:18:19.773Z,6.40
2023-03-01T09:21:11.306Z,6.20
2023-03-01T09:24:01.178Z,6.10
2023-03-01T09:26:50.774Z,6.10
2023-03-01T09:32:16.244Z,6.10
2023-03-01T09:35:08.249Z,6.10
2023-03-01T09:37:57.177Z,6.10
2023-03-01T09:40:47.597Z,6.00
2023-03-01T09:43:56.471Z,5.90
2023-03-01T09:46:47.361Z,6.00
2023-03-01T09:49:41.856Z,5.90
2023-03-01T09:52:38.521Z,5.80
2023-03-01T09:55:32.225Z,5.80
2023-03-01T09:58:49.762Z,5.70
2023-03-01T10:01:43.162Z,5.80
2023-03-01T10:04:44.068Z,5.80
2023-03-01T10:07:43.742Z,5.80
2023-03-01T10:10:38.101Z,5.90
2023-03-01T10:13:33.493Z,5.80
2023-03-01T10:16:28.144Z,5.80
2023-03-01T10:19:24.300Z,5.70
2023-03-01T10:22:18.677Z,5.70
2023-03-01T10:25:07.936Z,5.60
2023-03-01T10:28:02.251Z,5.70
2023-03-01T10:30:50.991Z,5.80
2023-03-01T10:33:41.443Z,5.80
2023-03-01T10:36:34.892Z,5.70
2023-03-01T10:39:27.299Z,6.00
2023-03-01T10:42:24.801Z,6.00
2023-03-01T10:45:36.084Z,6.00
2023-03-01T10:48:27.403Z,6.10
2023-03-01T10:51:21.319Z,6.10
2023-03-01T10:54:20.165Z,6.20
2023-03-01T10:57:33.442Z,6.30
2023-03-01T11:00:25.976Z,6.10
2023-03-01T11:03:16.523Z,6.10
2023-03-01T11:06:08.554Z,6.10
2023-03-01T11:08:57.778Z,6.20
2023-03-01T11:11:47.260Z,6.30
2023-03-01T11:14:41.836Z,6.30
2023-03-01T11:17:36.649Z,6.30
2023-03-01T11:20:32.484Z,6.40
2023-03-01T11:23:22.398Z,6.50
2023-03-01T11:26:13.108Z,6.60
2023-03-01T11:29:07.418Z,6.70
2023-03-01T11:32:00.214Z,6.70
2023-03-01T11:34:53.630Z,6.80
2023-03-01T11:37:47.210Z,6.70
2023-03-01T11:40:41.299Z,6.70
2023-03-01T11:43:36.221Z,6.70
2023-03-01T11:46:48.018Z,6.70
2023-03-01T11:50:01.265Z,6.70
2023-03-01T11:53:04.758Z,6.80
2023-03-01T11:56:05.947Z,6.80
2023-03-01T11:59:22.606Z,6.70
2023-03-01T12:02:36.830Z,6.80
2023-03-01T12:06:04.730Z,6.80
2023-03-01T12:09:08.664Z,6.80
2023-03-01T12:12:20.608Z,6.70
2023-03-01T12:15:52.681Z,6.70
2023-03-01T12:19:11.083Z,6.90
2023-03-01T12:22:15.571Z,7.00
2023-03-01T12:25:18.351Z,7.00
2023-03-01T12:28:33.509Z,7.10
2023-03-01T12:31:50.235Z,7.00
2023-03-01T12:35:04.288Z,7.00
2023-03-01T12:38:16.938Z,7.00
2023-03-01T12:41:40.659Z,7.00
2023-03-01T12:44:54.604Z,7.10
2023-03-01T12:47:58.308Z,7.10
2023-03-01T12:50:51.098Z,7.10
2023-03-01T12:53:44.836Z,7.20
2023-03-01T12:56:39.340Z,7.10
2023-03-01T12:59:38.603Z,7.20
2023-03-01T13:02:33.900Z,7.30
2023-03-01T13:05:31.596Z,7.30
2023-03-01T13:08:29.694Z,7.30
2023-03-01T13:11:22.890Z,7.30
2023-03-01T13:14:46.196Z,7.30
2023-03-01T13:17:43.461Z,7.30
2023-03-01T13:20:34.985Z,7.40
2023-03-01T13:23:28.953Z,7.40
2023-03-01T13:26:20.176Z,7.40
2023-03-01T13:29:28.354Z,7.40
2023-03-01T13:32:37.954Z,7.40
2023-03-01T13:35:46.447Z,7.40
2023-03-01T13:38:48.648Z,7.40
2023-03-01T13:41:55.522Z,7.50
2023-03-01T13:44:45.789Z,7.50
2023-03-01T13:47:36.464Z,7.50
2023-03-01T13:50:27.332Z,7.60
2023-03-01T13:53:20.008Z,7.60
2023-03-01T13:56:12.169Z,7.60
2023-03-01T13:59:06.725Z,7.60
2023-03-01T14:01:57.141Z,7.80
2023-03-01T14:04:45.924Z,8.00
2023-03-01T14:07:34.579Z,8.00
2023-03-01T14:10:24.159Z,8.00
2023-03-01T14:13:31.176Z,8.00
2023-03-01T14:16:31.956Z,8.20
2023-03-01T14:19:33.296Z,8.20
2023-03-01T14:22:26.271Z,8.20
2023-03-01T14:25:34.090Z,8.20
2023-03-01T14:28:25.438Z,8.20
2023-03-01T14:31:52.548Z,8.20
2023-03-01T14:34:46.841Z,8.30
2023-03-01T14:37:36.704Z,8.30
2023-03-01T14:40:28.844Z,8.30
2023-03-01T14:43:24.845Z,8.30
2023-03-01T14:46:21.732Z,8.20
2023-03-01T14:49:16.380Z,8.20
2023-03-01T14:52:08.333Z,8.10
2023-03-01T14:54:57.556Z,8.10
2023-03-01T14:57:47.400Z,8.10
2023-03-01T15:00:37.405Z,8.10
2023-03-01T15:03:35.205Z,8.00
2023-03-01T15:06:26.191Z,7.90
2023-03-01T15:09:17.997Z,7.90
2023-03-01T15:12:36.428Z,7.90
2023-03-01T15:15:38.931Z,7.90
2023-03-01T15:18:30.036Z,7.80
2023-03-01T15:21:21.089Z,7.90
2023-03-01T15:24:21.606Z,7.90
2023-03-01T15:27:19.643Z,7.80
2023-03-01T15:30:16.318Z,7.80
2023-03-01T15:33:39.871Z,7.70
2023-03-01T15:36:42.789Z,7.70
2023-03-01T15:39:39.421Z,7.70
2023-03-01T15:42:40.749Z,7.70
2023-03-01T15:45:31.126Z,7.70
2023-03-01T15:48:22.313Z,7.70
2023-03-01T15:51:16.316Z,7.50
2023-03-01T15:54:08.578Z,7.50
2023-03-01T15:56:59.139Z,7.50
2023-03-01T15:59:47.951Z,7.50
2023-03-01T16:02:40.098Z,7.50
2023-03-01T16:05:31.674Z,7.50
2023-03-01T16:08:21.022Z,7.50
2023-03-01T16:11:16.454Z,7.40
2023-03-01T16:14:06.602Z,7.40
2023-03-01T16:16:55.545Z,7.30
2023-03-01T16:19:44.196Z,7.20
2023-03-01T16:22:33.161Z,7.30
2023-03-01T16:25:23.797Z,7.30
2023-03-01T16:28:12.795Z,7.20
2023-03-01T16:31:03.265Z,7.10
2023-03-01T16:33:53.501Z,7.10
2023-03-01T16:36:44.606Z,7.10
2023-03-01T16:39:33.461Z,7.10
2023-03-01T16:42:22.088Z,7.00
2023-03-01T16:45:22.670Z,7.00
2023-03-01T16:48:14.487Z,7.00
2023-03-01T16:51:03.862Z,7.00
2023-03-01T16:53:53.296Z,6.90
2023-03-01T16:56:42.024Z,7.00
2023-03-01T16:59:31.148Z,6.90
2023-03-01T17:02:20.784Z,6.90
2023-03-01T17:05:12.904Z,6.80
2023-03-01T17:08:01.647Z,6.70
2023-03-01T17:10:50.816Z,6.70
2023-03-01T17:13:40.245Z,6.70
2023-03-01T17:16:29.057Z,6.70
2023-03-01T17:19:19.942Z,6.70
2023-03-01T17:22:10.383Z,6.60
2023-03-01T17:24:59.290Z,6.60
2023-03-01T17:27:48.194Z,6.60
2023-03-01T17:30:36.833Z,6.60
2023-03-01T17:33:25.479Z,6.60
2023-03-01T17:36:14.417Z,6.60
2023-03-01T17:39:04.623Z,6.50
2023-03-01T17:41:53.434Z,6.50
2023-03-01T17:44:42.923Z,6.50
2023-03-01T17:47:33.243Z,6.40
2023-03-01T17:50:22.021Z,6.40
2023-03-01T17:53:11.874Z,6.40
2023-03-01T17:56:03.822Z,6.40
2023-03-01T17:58:52.628Z,6.40
2023-03-01T18:01:43.698Z,6.30
2023-03-01T18:04:33.505Z,6.30
2023-03-01T18:07:22.261Z,6.30
2023-03-01T18:10:12.255Z,6.30
2023-03-01T18:13:02.381Z,6.20
2023-03-01T18:15:51.053Z,6.30
2023-03-01T18:18:40.529Z,6.20
2023-03-01T18:21:30.468Z,6.20
2023-03-01T18:24:19.566Z,6.20
2023-03-01T18:27:08.866Z,6.10
2023-03-01T18:29:59.278Z,6.10
2023-03-01T18:32:48.097Z,6.00
2023-03-01T18:35:38.262Z,6.00
2023-03-01T18:38:27.117Z,6.00
2023-03-01T18:41:16.076Z,6.00
2023-03-01T18:44:06.689Z,6.00
2023-03-01T18:46:58.367Z,6.00
2023-03-01T18:49:47.074Z,5.90
2023-03-01T18:52:35.973Z,5.90
2023-03-01T18:55:24.782Z,5.90
2023-03-01T18:58:13.621Z,5.80
2023-03-01T19:01:04.445Z,5.80
2023-03-01T19:03:56.313Z,5.80
2023-03-01T19:06:45.057Z,5.80
2023-03-01T19:09:33.892Z,5.70
2023-03-01T19:12:22.656Z,5.80
2023-03-01T19:15:12.208Z,5.80
2023-03-01T19:18:01.929Z,5.80
2023-03-01T19:21:03.802Z,5.80
2023-03-01T19:23:53.512Z,5.90
2023-03-01T19:26:42.713Z,5.80
2023-03-01T19:29:32.054Z,5.70
2023-03-01T19:32:20.851Z,5.70
2023-03-01T19:35:10.185Z,5.70
2023-03-01T19:38:00.450Z,5.70
2023-03-01T19:40:49.424Z,5.60
2023-03-01T19:43:38.936Z,5.70
2023-03-01T19:46:27.796Z,5.60
2023-03-01T19:49:16.838Z,5.60
2023-03-01T19:52:05.864Z,5.60
2023-03-01T19:55:08.593Z,5.40
2023-03-01T19:57:58.471Z,5.40
2023-03-01T20:00:48.429Z,5.50
2023-03-01T20:03:37.538Z,5.40
2023-03-01T20:06:26.267Z,5.50
2023-03-01T20:09:21.966Z,5.40
2023-03-01T20:12:12.694Z,5.40
2023-03-01T20:15:01.459Z,5.40
2023-03-01T20:17:50.448Z,5.40
2023-03-01T20:20:45.049Z,5.30
2023-03-01T20:23:33.946Z,5.40
2023-03-01T20:26:23.730Z,5.20
2023-03-01T20:29:13.907Z,5.20
2023-03-01T20:32:02.898Z,5.10
2023-03-01T20:34:52.144Z,5.20
2023-03-01T20:37:40.917Z,5.10
2023-03-01T20:40:29.915Z,5.20
2023-03-01T20:43:18.776Z,5.20
2023-03-01T20:46:12.412Z,5.20
2023-03-01T20:49:01.490Z,5.20
2023-03-01T20:51:50.780Z,5.20
2023-03-01T20:54:39.579Z,5.20
2023-03-01T20:57:28.246Z,5.10
2023-03-01T21:00:17.620Z,5.20
2023-03-01T21:03:07.725Z,5.20
2023-03-01T21:05:57.629Z,5.10
2023-03-01T21:08:46.596Z,5.00
2023-03-01T21:11:35.480Z,4.90
2023-03-01T21:14:24.377Z,5.00
2023-03-01T21:17:15.281Z,5.00
2023-03-01T21:20:06.273Z,4.90
2023-03-01T21:22:54.990Z,4.90
2023-03-01T21:25:45.370Z,4.80
2023-03-01T21:28:35.335Z,4.70
2023-03-01T21:31:27.596Z,4.80
2023-03-01T21:34:16.429Z,4.80
2023-03-01T21:37:12.008Z,4.70
2023-03-01T21:40:00.843Z,4.70
2023-03-01T21:42:49.753Z,4.60
2023-03-01T21:45:38.589Z,4.60
2023-03-01T21:48:27.360Z,4.70
2023-03-01T21:51:18.294Z,4.70
2023-03-01T21:54:09.518Z,4.60
2023-03-01T21:56:58.418Z,4.70
2023-03-01T21:59:47.113Z,4.70
2023-03-01T22:02:35.996Z,4.60
2023-03-01T22:05:24.850Z,4.60
2023-03-01T22:08:13.628Z,4.60
2023-03-01T22:11:05.168Z,4.60
2023-03-01T22:13:55.712Z,4.60
2023-03-01T22:16:46.403Z,4.60
2023-03-01T22:19:35.152Z,4.60
2023-03-01T22:22:23.838Z,4.50
2023-03-01T22:25:13.427Z,4.40
2023-03-01T22:28:03.571Z,4.50
2023-03-01T22:30:52.316Z,4.50
2023-03-01T22:33:40.987Z,4.50
2023-03-01T22:36:31.483Z,4.50
2023-03-01T22:39:22.267Z,4.40
2023-03-01T22:42:11.102Z,4.40
2023-03-01T22:45:01.275Z,4.40
2023-03-01T22:47:50.061Z,4.40
2023-03-01T22:50:38.768Z,4.30
2023-03-01T22:53:27.516Z,4.30
2023-03-01T22:56:18.200Z,4.30
2023-03-01T22:59:09.839Z,4.30
2023-03-01T23:02:00.204Z,4.30
2023-03-01T23:04:48.948Z,4.20
2023-03-01T23:07:38.098Z,4.20
2023-03-01T23:10:26.967Z,4.30
2023-03-01T23:13:15.634Z,4.30
2023-03-01T23:16:04.471Z,4.10
2023-03-01T23:18:55.362Z,4.20
2023-03-01T23:21:46.834Z,4.20
2023-03-01T23:24:35.742Z,4.10
2023-03-01T23:27:24.405Z,4.20
2023-03-01T23:30:13.659Z,4.20
2023-03-01T23:33:02.430Z,4.20
2023-03-01T23:35:52.639Z,4.20
2023-03-01T23:38:41.341Z,4.10
2023-03-01T23:41:32.423Z,4.10
2023-03-01T23:44:22.937Z,4.10
2023-03-01T23:47:11.573Z,4.20
2023-03-01T23:50:00.288Z,4.10
2023-03-01T23:52:50.590Z,4.10
2023-03-01T23:55:43.980Z,4.00
2023-03-01T23:58:33.439Z,4.10
